Terminal Aerodrome Forecast
Issued by NWS

Home | Current Version | Previous Version | Text Only | Print | Product List | Glossary On
Versions: 1 2 3 4 5 6 7 8 9 10 11 12 13 14 15 16 17 18 19 20 21 22 23 24 25
000
FTUS43 KGRB 162332
TAFRHI
TAF
KRHI 162332Z 1700/1724 VRB02KT P6SM OVC120
     FM170300 VRB02KT 5SM BR SCT020 OVC040
     FM170600 VRB02KT 3SM -SNPL BR OVC015
     FM170900 VRB03KT 2SM -SNPL BR OVC007
     FM171500 01004KT 3SM -SN BR BKN015 OVC050
     FM171700 30006KT P6SM BKN035=

USA.gov is the U.S. government's official web portal to all federal, state and local government web resources and services.